createdAt,value
2023-02-12T00:01:29.196Z,12.00
2023-02-12T00:03:58.281Z,20.60
2023-02-12T00:06:26.715Z,23.90
2023-02-12T00:08:56.485Z,22.60
2023-02-12T00:11:28.933Z,14.10
2023-02-12T00:13:58.074Z,20.30
2023-02-12T00:16:28.817Z,12.60
2023-02-12T00:18:58.733Z,13.90
2023-02-12T00:21:27.658Z,38.80
2023-02-12T00:23:55.910Z,34.90
2023-02-12T00:26:24.820Z,14.00
2023-02-12T00:28:52.939Z,11.30
2023-02-12T00:31:24.457Z,9.20
2023-02-12T00:33:53.062Z,12.30
2023-02-12T00:36:24.931Z,9.30
2023-02-12T00:38:54.917Z,13.00
2023-02-12T00:41:26.594Z,10.00
2023-02-12T00:43:54.872Z,11.70
2023-02-12T00:46:23.079Z,10.90
2023-02-12T00:48:52.061Z,8.30
2023-02-12T00:51:21.813Z,7.70
2023-02-12T00:53:49.758Z,8.50
2023-02-12T00:56:17.791Z,9.70
2023-02-12T00:58:45.874Z,11.30
2023-02-12T01:01:14.036Z,9.50
2023-02-12T01:03:42.466Z,10.50
2023-02-12T01:06:10.483Z,14.10
2023-02-12T01:08:38.394Z,9.50
2023-02-12T01:11:06.680Z,8.80
2023-02-12T01:13:35.205Z,8.80
2023-02-12T01:16:11.114Z,13.00
2023-02-12T01:18:39.433Z,10.50
2023-02-12T01:21:16.596Z,10.10
2023-02-12T01:23:46.171Z,10.10
2023-02-12T01:26:15.673Z,9.70
2023-02-12T01:28:45.785Z,11.10
2023-02-12T01:31:17.302Z,13.90
2023-02-12T01:33:48.854Z,11.60
2023-02-12T01:36:17.160Z,12.20
2023-02-12T01:38:45.238Z,13.30
2023-02-12T01:41:20.192Z,16.10
2023-02-12T01:44:12.702Z,15.30
2023-02-12T01:46:40.689Z,17.10
2023-02-12T01:49:16.707Z,15.40
2023-02-12T01:54:17.681Z,10.80
2023-02-12T01:56:46.014Z,42.00
2023-02-12T01:59:14.121Z,17.30
2023-02-12T02:01:42.509Z,13.30
2023-02-12T02:04:15.477Z,12.50
2023-02-12T02:06:50.717Z,10.90
2023-02-12T02:09:20.093Z,9.10
2023-02-12T02:12:06.785Z,19.30
2023-02-12T02:14:36.096Z,9.30
2023-02-12T02:17:13.521Z,9.70
2023-02-12T02:20:03.861Z,10.50
2023-02-12T02:22:41.006Z,10.30
2023-02-12T02:25:34.999Z,10.80
2023-02-12T02:28:18.528Z,11.00
2023-02-12T02:31:00.637Z,13.50
2023-02-12T02:33:50.758Z,10.30
2023-02-12T02:36:26.193Z,9.40
2023-02-12T02:39:07.362Z,9.60
2023-02-12T02:41:41.334Z,12.20
2023-02-12T02:44:17.775Z,13.30
2023-02-12T02:46:51.966Z,11.80
2023-02-12T02:49:35.677Z,11.00
2023-02-12T02:52:19.320Z,10.30
2023-02-12T02:54:54.638Z,10.40
2023-02-12T02:57:29.446Z,9.80
2023-02-12T03:00:10.212Z,9.40
2023-02-12T03:02:42.473Z,10.60
2023-02-12T03:05:20.170Z,9.40
2023-02-12T03:08:12.383Z,9.40
2023-02-12T03:10:45.922Z,9.30
2023-02-12T03:13:24.749Z,23.60
2023-02-12T03:16:04.890Z,14.90
2023-02-12T03:18:50.186Z,12.40
2023-02-12T03:21:27.608Z,9.00
2023-02-12T03:24:22.342Z,8.10
2023-02-12T03:27:13.970Z,16.20
2023-02-12T03:29:41.918Z,11.00
2023-02-12T03:32:30.827Z,13.70
2023-02-12T03:35:04.990Z,15.90
2023-02-12T03:37:55.076Z,14.10
2023-02-12T03:40:31.131Z,9.60
2023-02-12T03:43:19.599Z,7.40
2023-02-12T03:45:56.156Z,6.70
2023-02-12T03:48:41.503Z,6.90
2023-02-12T03:51:25.207Z,5.40
2023-02-12T03:53:53.313Z,6.70
2023-02-12T03:56:28.706Z,6.50
2023-02-12T03:58:57.604Z,20.00
2023-02-12T04:01:27.495Z,21.20
2023-02-12T04:03:56.278Z,24.90
2023-02-12T04:06:27.044Z,20.20
2023-02-12T04:08:58.323Z,9.80
2023-02-12T04:12:04.901Z,17.00
2023-02-12T04:14:56.515Z,5.90
2023-02-12T04:17:50.289Z,6.00
2023-02-12T04:20:27.648Z,6.70
2023-02-12T04:22:55.620Z,7.10
2023-02-12T04:26:01.988Z,18.60
2023-02-12T04:29:09.418Z,33.40
2023-02-12T04:32:03.881Z,10.00
2023-02-12T04:34:40.545Z,8.90
2023-02-12T04:37:30.326Z,7.40
2023-02-12T04:40:00.362Z,6.20
2023-02-12T04:42:28.399Z,8.30
2023-02-12T04:44:56.209Z,6.70
2023-02-12T04:47:24.023Z,7.00
2023-02-12T04:49:52.075Z,7.20
2023-02-12T04:52:19.891Z,6.30
2023-02-12T04:54:47.856Z,6.80
2023-02-12T04:57:15.783Z,5.60
2023-02-12T04:59:43.647Z,7.90
2023-02-12T05:02:11.555Z,6.00
2023-02-12T05:04:39.541Z,5.30
2023-02-12T05:07:07.423Z,5.10
2023-02-12T05:09:35.245Z,5.40
2023-02-12T05:12:03.410Z,6.20
2023-02-12T05:14:31.350Z,6.20
2023-02-12T05:16:59.510Z,7.00
2023-02-12T05:19:27.286Z,8.30
2023-02-12T05:21:55.313Z,6.80
2023-02-12T05:24:23.346Z,8.10
2023-02-12T05:26:51.741Z,13.00
2023-02-12T05:29:20.053Z,8.50
2023-02-12T05:31:48.218Z,7.20
2023-02-12T05:34:16.275Z,10.60
2023-02-12T05:36:44.285Z,8.80
2023-02-12T05:39:12.219Z,9.60
2023-02-12T05:41:40.227Z,9.10
2023-02-12T05:44:08.113Z,10.90
2023-02-12T05:46:36.216Z,10.50
2023-02-12T05:49:04.486Z,11.80
2023-02-12T05:51:32.645Z,7.40
2023-02-12T05:54:03.757Z,10.10
2023-02-12T05:56:34.384Z,12.10
2023-02-12T05:59:23.446Z,10.80
2023-02-12T06:01:52.226Z,10.00
2023-02-12T06:04:23.856Z,10.70
2023-02-12T06:06:53.491Z,9.10
2023-02-12T06:09:21.954Z,7.70
2023-02-12T06:11:49.764Z,8.50
2023-02-12T06:14:19.832Z,10.20
2023-02-12T06:16:50.276Z,8.90
2023-02-12T06:19:19.364Z,10.80
2023-02-12T06:21:47.857Z,10.10
2023-02-12T06:24:17.222Z,11.50
2023-02-12T06:26:46.048Z,10.80
2023-02-12T06:29:13.935Z,8.80
2023-02-12T06:31:42.817Z,9.60
2023-02-12T06:34:13.073Z,9.90
2023-02-12T06:36:44.730Z,9.50
2023-02-12T06:39:15.661Z,9.60
2023-02-12T06:41:44.752Z,10.50
2023-02-12T06:44:13.243Z,12.50
2023-02-12T06:46:41.505Z,15.20
2023-02-12T06:49:12.557Z,14.70
2023-02-12T06:51:41.532Z,12.20
2023-02-12T06:54:14.552Z,10.60
2023-02-12T06:56:42.565Z,11.10
2023-02-12T06:59:15.335Z,12.90
2023-02-12T07:01:44.136Z,11.90
2023-02-12T07:04:12.247Z,11.90
2023-02-12T07:06:40.736Z,11.50
2023-02-12T07:09:08.831Z,11.50
2023-02-12T07:11:38.479Z,13.00
2023-02-12T07:14:08.117Z,11.70
2023-02-12T07:16:40.648Z,11.50
2023-02-12T07:19:09.668Z,11.80
2023-02-12T07:21:37.482Z,12.20
2023-02-12T07:24:05.678Z,12.30
2023-02-12T07:26:33.634Z,13.90
2023-02-12T07:29:01.646Z,14.10
2023-02-12T07:31:29.612Z,13.20
2023-02-12T07:33:59.769Z,12.70
2023-02-12T07:36:30.696Z,11.90
2023-02-12T07:39:00.137Z,10.50
2023-02-12T07:41:30.852Z,11.70
2023-02-12T07:44:03.625Z,10.50
2023-02-12T07:46:34.234Z,11.30
2023-02-12T07:49:05.848Z,10.60
2023-02-12T07:51:35.582Z,10.30
2023-02-12T07:54:04.323Z,10.90
2023-02-12T07:56:35.503Z,11.00
2023-02-12T07:59:12.873Z,11.60
2023-02-12T08:01:45.637Z,11.00
2023-02-12T08:04:16.396Z,9.90
2023-02-12T08:06:49.869Z,10.30
2023-02-12T08:09:24.139Z,9.60
2023-02-12T08:11:52.182Z,9.80
2023-02-12T08:14:22.009Z,10.70
2023-02-12T08:16:50.882Z,37.40
2023-02-12T08:19:24.049Z,260.30
2023-02-12T08:21:55.243Z,229.10
2023-02-12T08:24:24.728Z,128.70
2023-02-12T08:26:52.898Z,100.20
2023-02-12T08:29:24.478Z,21.60
2023-02-12T08:31:58.155Z,15.20
2023-02-12T08:34:32.142Z,14.20
2023-02-12T08:37:00.549Z,11.70
2023-02-12T08:39:29.794Z,12.90
2023-02-12T08:41:59.392Z,11.80
2023-02-12T08:44:27.920Z,13.50
2023-02-12T08:46:55.888Z,13.10
2023-02-12T08:49:26.938Z,13.20
2023-02-12T08:51:57.081Z,13.20
2023-02-12T08:54:27.429Z,13.00
2023-02-12T08:57:00.413Z,19.60
2023-02-12T08:59:28.775Z,19.60
2023-02-12T09:01:56.970Z,18.80
2023-02-12T09:04:27.080Z,17.20
2023-02-12T09:06:56.198Z,14.60
2023-02-12T09:09:24.704Z,14.60
2023-02-12T09:11:52.845Z,15.00
2023-02-12T09:14:24.951Z,20.20
2023-02-12T09:16:54.210Z,40.40
2023-02-12T09:19:22.522Z,31.10
2023-02-12T09:21:55.168Z,43.60
2023-02-12T09:24:25.735Z,40.80
2023-02-12T09:26:53.761Z,35.30
2023-02-12T09:29:21.734Z,39.80
2023-02-12T09:31:49.746Z,15.60
2023-02-12T09:34:18.106Z,60.40
2023-02-12T09:36:46.060Z,17.30
2023-02-12T09:39:14.005Z,59.10
2023-02-12T09:42:15.372Z,17.80
2023-02-12T09:44:52.486Z,17.90
2023-02-12T09:47:32.353Z,13.70
2023-02-12T09:50:06.147Z,47.30
2023-02-12T09:52:35.541Z,80.10
2023-02-12T09:55:04.089Z,49.00
2023-02-12T09:57:36.183Z,32.00
2023-02-12T10:00:24.483Z,29.50
2023-02-12T10:02:54.454Z,45.20
2023-02-12T10:05:29.338Z,26.30
2023-02-12T10:08:39.313Z,20.00
2023-02-12T10:11:16.137Z,29.30
2023-02-12T10:14:38.842Z,24.50
2023-02-12T10:17:34.313Z,25.10
2023-02-12T10:23:16.129Z,31.60
2023-02-12T10:25:54.576Z,42.30
2023-02-12T10:28:35.257Z,52.50
2023-02-12T10:31:08.191Z,78.20
2023-02-12T10:33:42.146Z,41.60
2023-02-12T10:36:26.261Z,119.20
2023-02-12T10:39:01.349Z,68.10
2023-02-12T10:41:31.510Z,54.10
2023-02-12T10:43:59.513Z,65.60
2023-02-12T10:46:32.111Z,57.30
2023-02-12T10:49:00.769Z,186.20
2023-02-12T10:51:50.099Z,228.80
2023-02-12T10:54:41.743Z,168.70
2023-02-12T10:57:22.081Z,80.70
2023-02-12T10:59:53.410Z,50.20
2023-02-12T11:02:23.014Z,75.60
2023-02-12T11:04:52.799Z,105.20
2023-02-12T11:07:22.032Z,46.40
2023-02-12T11:09:52.031Z,33.10
2023-02-12T11:12:22.904Z,49.50
2023-02-12T11:14:54.302Z,67.50
2023-02-12T11:17:39.861Z,57.60
2023-02-12T11:20:16.614Z,52.10
2023-02-12T11:22:50.320Z,70.70
2023-02-12T11:25:18.831Z,30.60
2023-02-12T11:28:00.305Z,17.40
2023-02-12T11:30:28.540Z,27.50
2023-02-12T11:33:16.453Z,42.90
2023-02-12T11:35:58.085Z,25.70
2023-02-12T11:38:36.783Z,13.10
2023-02-12T11:41:38.213Z,11.70
2023-02-12T11:44:22.449Z,9.50
2023-02-12T11:47:02.167Z,11.10
2023-02-12T11:49:34.806Z,12.30
2023-02-12T11:52:04.856Z,20.80
2023-02-12T11:54:42.069Z,12.40
2023-02-12T11:57:35.854Z,13.90
2023-02-12T12:00:16.597Z,16.60
2023-02-12T12:03:06.884Z,10.50
2023-02-12T12:06:01.259Z,8.00
2023-02-12T12:08:44.325Z,8.40
2023-02-12T12:11:20.810Z,107.70
2023-02-12T12:14:15.228Z,319.50
2023-02-12T12:17:13.335Z,49.60
2023-02-12T12:20:06.840Z,63.10
2023-02-12T12:22:51.451Z,28.30
2023-02-12T12:25:30.078Z,9.60
2023-02-12T12:28:10.809Z,46.60
2023-02-12T12:31:02.973Z,87.30
2023-02-12T12:33:46.807Z,65.90
2023-02-12T12:36:14.818Z,201.10
2023-02-12T12:38:49.286Z,49.70
2023-02-12T12:41:41.414Z,34.10
2023-02-12T12:44:31.021Z,44.00
2023-02-12T12:47:17.944Z,97.80
2023-02-12T12:49:59.149Z,32.20
2023-02-12T12:52:33.297Z,86.00
2023-02-12T12:55:07.502Z,41.90
2023-02-12T12:57:39.934Z,32.40
2023-02-12T13:00:29.134Z,26.70
2023-02-12T13:03:29.297Z,691.00
2023-02-12T13:06:21.729Z,101.90
2023-02-12T13:09:08.857Z,64.50
2023-02-12T13:11:55.062Z,21.10
2023-02-12T13:14:44.839Z,85.30
2023-02-12T13:17:30.734Z,17.00
2023-02-12T13:19:58.833Z,33.60
2023-02-12T13:22:35.045Z,108.90
2023-02-12T13:25:21.225Z,28.20
2023-02-12T13:27:52.137Z,48.00
2023-02-12T13:30:25.242Z,29.50
2023-02-12T13:33:24.183Z,25.50
2023-02-12T13:35:57.323Z,13.80
2023-02-12T13:38:39.492Z,29.10
2023-02-12T13:41:11.238Z,92.70
2023-02-12T13:43:39.159Z,90.30
2023-02-12T13:46:13.169Z,22.40
2023-02-12T13:48:40.975Z,22.40
2023-02-12T13:51:41.392Z,23.60
2023-02-12T13:54:33.489Z,26.40
2023-02-12T13:57:07.882Z,29.30
2023-02-12T13:59:35.837Z,45.60
2023-02-12T14:02:06.726Z,45.70
2023-02-12T14:04:52.932Z,23.10
2023-02-12T14:07:22.256Z,21.00
2023-02-12T14:09:50.121Z,122.90
2023-02-12T14:12:28.657Z,37.20
2023-02-12T14:15:07.136Z,35.40
2023-02-12T14:17:35.043Z,85.50
2023-02-12T14:20:13.612Z,75.10
2023-02-12T14:22:44.274Z,85.80
2023-02-12T14:25:15.056Z,50.10
2023-02-12T14:27:50.371Z,116.70
2023-02-12T14:30:35.456Z,300.80
2023-02-12T14:33:26.460Z,74.30
2023-02-12T14:36:17.512Z,50.30
2023-02-12T14:38:47.769Z,92.90
2023-02-12T14:41:41.925Z,35.90
2023-02-12T14:44:23.399Z,109.90
2023-02-12T14:46:58.923Z,51.20
2023-02-12T14:49:49.086Z,53.00
2023-02-12T14:52:22.668Z,42.60
2023-02-12T14:55:04.240Z,25.30
2023-02-12T14:57:39.524Z,60.40
2023-02-12T15:00:16.733Z,21.80
2023-02-12T15:02:53.856Z,266.50
2023-02-12T15:05:29.182Z,225.30
2023-02-12T15:08:12.054Z,70.50
2023-02-12T15:10:47.477Z,94.50
2023-02-12T15:13:30.889Z,256.30
2023-02-12T15:16:27.609Z,79.20
2023-02-12T15:19:18.735Z,159.50
2023-02-12T15:21:47.968Z,169.80
2023-02-12T15:24:23.574Z,194.50
2023-02-12T15:26:54.582Z,62.10
2023-02-12T15:29:27.766Z,38.60
2023-02-12T15:32:02.482Z,60.00
2023-02-12T15:34:33.318Z,150.00
2023-02-12T15:37:03.744Z,80.40
2023-02-12T15:39:43.433Z,89.40
2023-02-12T15:42:52.930Z,264.50
2023-02-12T15:45:23.878Z,78.60
2023-02-12T15:48:19.306Z,111.10
2023-02-12T15:51:07.898Z,197.70
2023-02-12T15:53:38.574Z,209.20
2023-02-12T15:56:19.710Z,173.50
2023-02-12T15:58:50.235Z,102.40
2023-02-12T16:01:52.402Z,44.50
2023-02-12T16:04:20.450Z,54.30
2023-02-12T16:06:49.527Z,116.00
2023-02-12T16:09:27.727Z,172.00
2023-02-12T16:11:58.308Z,324.50
2023-02-12T16:14:28.733Z,287.00
2023-02-12T16:16:59.251Z,365.00
2023-02-12T16:19:37.265Z,238.80
2023-02-12T16:22:05.632Z,224.50
2023-02-12T16:24:38.115Z,391.40
2023-02-12T16:27:20.040Z,165.90
2023-02-12T16:29:51.853Z,106.40
2023-02-12T16:32:31.219Z,90.60
2023-02-12T16:35:24.859Z,151.60
2023-02-12T16:38:17.337Z,78.10
2023-02-12T16:41:11.023Z,91.20
2023-02-12T16:43:38.972Z,191.00
2023-02-12T16:46:08.722Z,319.30
2023-02-12T16:48:49.070Z,209.50
2023-02-12T16:51:37.614Z,328.50
2023-02-12T16:54:26.588Z,492.20
2023-02-12T16:56:54.629Z,179.10
2023-02-12T16:59:22.808Z,92.50
2023-02-12T17:02:09.773Z,81.40
2023-02-12T17:04:37.658Z,72.10
2023-02-12T17:07:28.252Z,151.10
2023-02-12T17:09:56.318Z,170.90
2023-02-12T17:12:24.650Z,391.90
2023-02-12T17:14:52.712Z,217.20
2023-02-12T17:17:20.614Z,160.30
2023-02-12T17:19:48.621Z,221.00
2023-02-12T17:22:26.506Z,233.10
2023-02-12T17:24:54.899Z,153.60
2023-02-12T17:27:22.854Z,191.30
2023-02-12T17:29:50.890Z,108.50
2023-02-12T17:32:18.994Z,181.40
2023-02-12T17:34:48.839Z,108.30
2023-02-12T17:37:18.427Z,86.60
2023-02-12T17:39:46.586Z,85.20
2023-02-12T17:42:14.835Z,65.20
2023-02-12T17:44:42.768Z,86.00
2023-02-12T17:47:10.853Z,73.10
2023-02-12T17:49:39.962Z,74.50
2023-02-12T17:52:08.043Z,120.20
2023-02-12T17:54:36.737Z,50.90
2023-02-12T17:57:04.836Z,85.50
2023-02-12T17:59:32.893Z,93.40
2023-02-12T18:02:00.854Z,70.10
2023-02-12T18:04:28.901Z,60.00
2023-02-12T18:06:57.738Z,71.80
2023-02-12T18:09:25.575Z,116.30
2023-02-12T18:11:53.800Z,53.50
2023-02-12T18:14:21.833Z,49.10
2023-02-12T18:16:50.070Z,81.40
2023-02-12T18:19:18.022Z,65.20
2023-02-12T18:21:45.984Z,43.10
2023-02-12T18:24:14.026Z,64.70
2023-02-12T18:26:42.055Z,32.30
2023-02-12T18:29:10.246Z,29.00
2023-02-12T18:31:38.174Z,22.50
2023-02-12T18:34:07.121Z,32.20
2023-02-12T18:36:35.045Z,35.10
2023-02-12T18:39:03.745Z,43.00
2023-02-12T18:41:35.917Z,29.40
2023-02-12T18:44:05.350Z,97.20
2023-02-12T18:46:33.246Z,36.50
2023-02-12T18:49:01.765Z,54.40
2023-02-12T18:51:33.832Z,16.20
2023-02-12T18:54:06.432Z,13.80
2023-02-12T18:56:41.075Z,17.00
2023-02-12T18:59:12.257Z,16.00
2023-02-12T19:01:40.287Z,15.10
2023-02-12T19:04:11.512Z,13.00
2023-02-12T19:06:51.115Z,14.60
2023-02-12T19:09:23.410Z,11.30
2023-02-12T19:11:54.290Z,13.80
2023-02-12T19:14:24.054Z,13.90
2023-02-12T19:16:52.982Z,16.40
2023-02-12T19:19:22.031Z,14.40
2023-02-12T19:21:50.915Z,14.30
2023-02-12T19:24:19.064Z,15.50
2023-02-12T19:26:51.723Z,16.80
2023-02-12T19:29:19.931Z,16.40
2023-02-12T19:31:48.063Z,17.40
2023-02-12T19:34:19.733Z,16.00
2023-02-12T19:36:49.044Z,17.40
2023-02-12T19:39:20.597Z,17.60
2023-02-12T19:41:49.230Z,17.00
2023-02-12T19:44:21.765Z,18.70
2023-02-12T19:46:50.689Z,19.40
2023-02-12T19:49:27.638Z,17.40
2023-02-12T19:51:55.704Z,18.00
2023-02-12T19:54:24.473Z,17.80
2023-02-12T19:56:54.111Z,20.50
2023-02-12T19:59:23.817Z,17.90
2023-02-12T20:01:51.905Z,17.40
2023-02-12T20:04:23.028Z,18.90
2023-02-12T20:06:51.315Z,19.80
2023-02-12T20:09:21.533Z,20.30
2023-02-12T20:11:49.637Z,20.00
2023-02-12T20:14:17.962Z,20.60
2023-02-12T20:16:47.588Z,17.90
2023-02-12T20:19:19.799Z,17.90
2023-02-12T20:21:53.398Z,17.70
2023-02-12T20:24:27.998Z,18.20
2023-02-12T20:26:58.424Z,17.30
2023-02-12T20:29:27.002Z,17.50
2023-02-12T20:31:55.057Z,19.30
2023-02-12T20:34:23.362Z,20.10
2023-02-12T20:36:51.489Z,18.90
2023-02-12T20:39:20.905Z,17.70
2023-02-12T20:41:50.194Z,18.00
2023-02-12T20:44:21.086Z,17.90
2023-02-12T20:46:54.537Z,17.20
2023-02-12T20:49:25.698Z,16.30
2023-02-12T20:51:54.000Z,15.80
2023-02-12T20:54:22.189Z,17.90
2023-02-12T20:56:50.912Z,18.70
2023-02-12T20:59:18.977Z,17.50
2023-02-12T21:01:47.609Z,17.20
2023-02-12T21:04:18.671Z,15.80
2023-02-12T21:06:48.552Z,18.20
2023-02-12T21:09:17.623Z,38.80
2023-02-12T21:11:45.964Z,21.60
2023-02-12T21:14:23.857Z,21.20
2023-02-12T21:16:54.325Z,21.70
2023-02-12T21:19:24.446Z,28.30
2023-02-12T21:21:52.967Z,29.20
2023-02-12T21:24:24.198Z,29.30
2023-02-12T21:26:53.682Z,35.30
2023-02-12T21:29:22.156Z,28.30
2023-02-12T21:31:51.594Z,52.40
2023-02-12T21:34:22.264Z,34.60
2023-02-12T21:36:53.127Z,28.00
2023-02-12T21:39:25.103Z,20.60
2023-02-12T21:41:55.851Z,20.90
2023-02-12T21:44:25.549Z,19.20
2023-02-12T21:46:54.089Z,17.40
2023-02-12T21:49:27.890Z,17.50
2023-02-12T21:51:59.244Z,21.10
2023-02-12T21:54:29.187Z,19.10
2023-02-12T21:56:57.408Z,18.80
2023-02-12T21:59:26.667Z,18.20
2023-02-12T22:01:58.070Z,24.10
2023-02-12T22:04:27.011Z,18.30
2023-02-12T22:06:56.622Z,16.60
2023-02-12T22:09:24.571Z,18.30
2023-02-12T22:11:52.995Z,17.80
2023-02-12T22:14:22.938Z,20.00
2023-02-12T22:16:51.164Z,22.70
2023-02-12T22:19:19.360Z,18.90
2023-02-12T22:21:51.704Z,18.70
2023-02-12T22:24:21.202Z,17.70
2023-02-12T22:26:49.655Z,17.20
2023-02-12T22:29:18.499Z,18.30
2023-02-12T22:31:47.695Z,16.70
2023-02-12T22:34:19.105Z,16.40
2023-02-12T22:36:47.875Z,15.20
2023-02-12T22:39:17.603Z,15.80
2023-02-12T22:41:46.374Z,15.80
2023-02-12T22:44:15.789Z,13.80
2023-02-12T22:46:44.820Z,14.30
2023-02-12T22:49:13.463Z,14.20
2023-02-12T22:51:41.868Z,14.30
2023-02-12T22:54:14.776Z,14.60
2023-02-12T22:56:43.529Z,16.00
2023-02-12T22:59:12.479Z,14.40
2023-02-12T23:01:41.114Z,13.90
2023-02-12T23:04:17.392Z,12.90
2023-02-12T23:09:15.512Z,12.30
2023-02-12T23:11:43.857Z,11.10
2023-02-12T23:14:12.343Z,10.70
2023-02-12T23:16:40.376Z,10.20
2023-02-12T23:19:11.247Z,10.20
2023-02-12T23:21:39.858Z,10.40
2023-02-12T23:24:07.877Z,10.60
2023-02-12T23:26:36.749Z,10.60
2023-02-12T23:29:04.619Z,9.60
2023-02-12T23:31:32.613Z,9.50
2023-02-12T23:34:00.503Z,9.10
2023-02-12T23:36:29.113Z,9.10
2023-02-12T23:38:57.100Z,9.50
2023-02-12T23:41:25.023Z,10.70
2023-02-12T23:43:53.048Z,10.80
2023-02-12T23:46:21.753Z,9.40
2023-02-12T23:48:49.811Z,10.40
2023-02-12T23:51:17.836Z,8.60
2023-02-12T23:53:45.838Z,9.40
2023-02-12T23:56:13.757Z,9.20
2023-02-12T23:58:41.569Z,9.40
